sensor_id;sensor_type;location;lat;lon;timestamp;P1;durP1;ratioP1;P2;durP2;ratioP2
13343;SDS011;6741;48.964;9.406;2022-12-18T00:00:58;54.43;;;27.80;;
13343;SDS011;6741;48.964;9.406;2022-12-18T00:03:25;52.73;;;27.37;;
13343;SDS011;6741;48.964;9.406;2022-12-18T00:05:52;52.27;;;27.97;;
13343;SDS011;6741;48.964;9.406;2022-12-18T00:08:19;48.17;;;27.60;;
13343;SDS011;6741;48.964;9.406;2022-12-18T00:10:46;59.43;;;30.70;;
13343;SDS011;6741;48.964;9.406;2022-12-18T00:13:14;62.23;;;31.43;;
13343;SDS011;6741;48.964;9.406;2022-12-18T00:15:41;57.73;;;28.73;;
13343;SDS011;6741;48.964;9.406;2022-12-18T00:18:09;53.87;;;26.33;;
13343;SDS011;6741;48.964;9.406;2022-12-18T00:20:36;52.93;;;28.17;;
13343;SDS011;6741;48.964;9.406;2022-12-18T00:23:04;54.00;;;30.30;;
13343;SDS011;6741;48.964;9.406;2022-12-18T00:25:32;43.27;;;23.60;;
13343;SDS011;6741;48.964;9.406;2022-12-18T00:28:00;41.07;;;21.57;;
13343;SDS011;6741;48.964;9.406;2022-12-18T00:30:28;41.93;;;22.73;;
13343;SDS011;6741;48.964;9.406;2022-12-18T00:32:55;40.63;;;22.03;;
13343;SDS011;6741;48.964;9.406;2022-12-18T00:35:23;36.73;;;20.80;;
13343;SDS011;6741;48.964;9.406;2022-12-18T00:37:50;44.10;;;22.57;;
13343;SDS011;6741;48.964;9.406;2022-12-18T00:40:17;39.63;;;23.30;;
13343;SDS011;6741;48.964;9.406;2022-12-18T00:42:44;40.00;;;20.50;;
13343;SDS011;6741;48.964;9.406;2022-12-18T00:45:24;34.97;;;21.47;;
13343;SDS011;6741;48.964;9.406;2022-12-18T00:47:53;68.93;;;23.47;;
13343;SDS011;6741;48.964;9.406;2022-12-18T00:50:21;48.33;;;23.37;;
13343;SDS011;6741;48.964;9.406;2022-12-18T00:52:48;43.47;;;22.60;;
13343;SDS011;6741;48.964;9.406;2022-12-18T00:55:16;43.67;;;23.73;;
13343;SDS011;6741;48.964;9.406;2022-12-18T00:57:43;36.43;;;22.20;;
13343;SDS011;6741;48.964;9.406;2022-12-18T01:00:11;48.33;;;24.33;;
13343;SDS011;6741;48.964;9.406;2022-12-18T01:02:39;44.73;;;22.77;;
13343;SDS011;6741;48.964;9.406;2022-12-18T01:05:08;41.93;;;22.97;;
13343;SDS011;6741;48.964;9.406;2022-12-18T01:07:36;43.47;;;23.77;;
13343;SDS011;6741;48.964;9.406;2022-12-18T01:10:04;44.90;;;22.93;;
13343;SDS011;6741;48.964;9.406;2022-12-18T01:12:32;47.30;;;24.17;;
13343;SDS011;6741;48.964;9.406;2022-12-18T01:14:59;41.90;;;22.50;;
13343;SDS011;6741;48.964;9.406;2022-12-18T01:17:26;39.23;;;21.83;;
13343;SDS011;6741;48.964;9.406;2022-12-18T01:19:53;42.27;;;21.97;;
13343;SDS011;6741;48.964;9.406;2022-12-18T01:22:22;40.63;;;21.77;;
13343;SDS011;6741;48.964;9.406;2022-12-18T01:24:49;42.83;;;23.67;;
13343;SDS011;6741;48.964;9.406;2022-12-18T01:27:16;44.57;;;22.10;;
13343;SDS011;6741;48.964;9.406;2022-12-18T01:29:43;41.73;;;22.20;;
13343;SDS011;6741;48.964;9.406;2022-12-18T01:32:10;48.30;;;26.20;;
13343;SDS011;6741;48.964;9.406;2022-12-18T01:34:37;49.43;;;25.67;;
13343;SDS011;6741;48.964;9.406;2022-12-18T01:37:04;46.20;;;25.67;;
13343;SDS011;6741;48.964;9.406;2022-12-18T01:39:33;48.43;;;25.23;;
13343;SDS011;6741;48.964;9.406;2022-12-18T01:42:00;39.97;;;22.40;;
13343;SDS011;6741;48.964;9.406;2022-12-18T01:47:36;50.90;;;24.03;;
13343;SDS011;6741;48.964;9.406;2022-12-18T01:50:08;36.33;;;21.20;;
13343;SDS011;6741;48.964;9.406;2022-12-18T01:52:37;40.03;;;21.60;;
13343;SDS011;6741;48.964;9.406;2022-12-18T01:55:11;41.40;;;21.40;;
13343;SDS011;6741;48.964;9.406;2022-12-18T01:57:40;36.30;;;20.30;;
13343;SDS011;6741;48.964;9.406;2022-12-18T02:00:10;36.33;;;20.97;;
13343;SDS011;6741;48.964;9.406;2022-12-18T02:02:40;38.63;;;22.40;;
13343;SDS011;6741;48.964;9.406;2022-12-18T02:05:07;41.13;;;22.73;;
13343;SDS011;6741;48.964;9.406;2022-12-18T02:07:38;37.33;;;22.33;;
13343;SDS011;6741;48.964;9.406;2022-12-18T02:10:13;35.33;;;20.70;;
13343;SDS011;6741;48.964;9.406;2022-12-18T02:12:48;40.07;;;23.00;;
13343;SDS011;6741;48.964;9.406;2022-12-18T02:15:19;37.93;;;21.17;;
13343;SDS011;6741;48.964;9.406;2022-12-18T02:17:54;44.93;;;23.50;;
13343;SDS011;6741;48.964;9.406;2022-12-18T02:20:24;42.30;;;22.77;;
13343;SDS011;6741;48.964;9.406;2022-12-18T02:23:02;40.67;;;24.37;;
13343;SDS011;6741;48.964;9.406;2022-12-18T02:25:40;44.17;;;25.10;;
13343;SDS011;6741;48.964;9.406;2022-12-18T02:28:35;38.60;;;21.90;;
13343;SDS011;6741;48.964;9.406;2022-12-18T02:31:07;44.40;;;23.87;;
13343;SDS011;6741;48.964;9.406;2022-12-18T02:33:37;40.50;;;23.10;;
13343;SDS011;6741;48.964;9.406;2022-12-18T02:36:05;46.80;;;24.53;;
13343;SDS011;6741;48.964;9.406;2022-12-18T02:38:34;44.13;;;24.10;;
13343;SDS011;6741;48.964;9.406;2022-12-18T02:41:02;43.57;;;24.03;;
13343;SDS011;6741;48.964;9.406;2022-12-18T02:43:30;42.10;;;23.77;;
13343;SDS011;6741;48.964;9.406;2022-12-18T02:45:59;40.67;;;22.43;;
13343;SDS011;6741;48.964;9.406;2022-12-18T02:48:28;51.93;;;25.13;;
13343;SDS011;6741;48.964;9.406;2022-12-18T02:50:59;43.63;;;23.50;;
13343;SDS011;6741;48.964;9.406;2022-12-18T02:53:32;41.30;;;22.37;;
13343;SDS011;6741;48.964;9.406;2022-12-18T02:56:06;48.00;;;24.47;;
13343;SDS011;6741;48.964;9.406;2022-12-18T02:58:40;44.63;;;23.30;;
13343;SDS011;6741;48.964;9.406;2022-12-18T03:01:16;45.47;;;23.43;;
13343;SDS011;6741;48.964;9.406;2022-12-18T03:03:50;46.53;;;23.10;;
13343;SDS011;6741;48.964;9.406;2022-12-18T03:06:23;38.80;;;22.10;;
13343;SDS011;6741;48.964;9.406;2022-12-18T03:08:54;42.53;;;22.57;;
13343;SDS011;6741;48.964;9.406;2022-12-18T03:11:24;41.20;;;23.30;;
13343;SDS011;6741;48.964;9.406;2022-12-18T03:14:07;42.90;;;23.30;;
13343;SDS011;6741;48.964;9.406;2022-12-18T03:16:36;40.83;;;23.07;;
13343;SDS011;6741;48.964;9.406;2022-12-18T03:19:06;40.93;;;23.73;;
13343;SDS011;6741;48.964;9.406;2022-12-18T03:21:39;42.63;;;24.23;;
13343;SDS011;6741;48.964;9.406;2022-12-18T03:24:11;42.17;;;24.17;;
13343;SDS011;6741;48.964;9.406;2022-12-18T03:26:39;44.80;;;24.23;;
13343;SDS011;6741;48.964;9.406;2022-12-18T03:29:12;41.40;;;24.13;;
13343;SDS011;6741;48.964;9.406;2022-12-18T03:31:45;48.23;;;24.40;;
13343;SDS011;6741;48.964;9.406;2022-12-18T03:34:16;42.53;;;25.00;;
13343;SDS011;6741;48.964;9.406;2022-12-18T03:36:48;46.37;;;24.00;;
13343;SDS011;6741;48.964;9.406;2022-12-18T03:39:15;39.00;;;22.17;;
13343;SDS011;6741;48.964;9.406;2022-12-18T03:41:43;39.77;;;22.97;;
13343;SDS011;6741;48.964;9.406;2022-12-18T03:44:14;40.83;;;23.07;;
13343;SDS011;6741;48.964;9.406;2022-12-18T03:46:50;37.33;;;23.27;;
13343;SDS011;6741;48.964;9.406;2022-12-18T03:49:25;45.23;;;24.23;;
13343;SDS011;6741;48.964;9.406;2022-12-18T03:51:59;46.30;;;24.57;;
13343;SDS011;6741;48.964;9.406;2022-12-18T03:54:30;42.40;;;24.03;;
13343;SDS011;6741;48.964;9.406;2022-12-18T03:56:59;47.17;;;24.73;;
13343;SDS011;6741;48.964;9.406;2022-12-18T03:59:31;44.90;;;25.00;;
13343;SDS011;6741;48.964;9.406;2022-12-18T04:02:00;43.00;;;25.03;;
13343;SDS011;6741;48.964;9.406;2022-12-18T04:04:29;43.63;;;24.47;;
13343;SDS011;6741;48.964;9.406;2022-12-18T04:06:57;49.87;;;25.30;;
13343;SDS011;6741;48.964;9.406;2022-12-18T04:09:25;50.57;;;27.83;;
13343;SDS011;6741;48.964;9.406;2022-12-18T04:11:53;47.50;;;27.17;;
13343;SDS011;6741;48.964;9.406;2022-12-18T04:14:20;49.87;;;27.73;;
13343;SDS011;6741;48.964;9.406;2022-12-18T04:16:48;49.47;;;26.03;;
13343;SDS011;6741;48.964;9.406;2022-12-18T04:19:17;50.73;;;27.27;;
13343;SDS011;6741;48.964;9.406;2022-12-18T04:21:44;45.77;;;26.40;;
13343;SDS011;6741;48.964;9.406;2022-12-18T04:24:11;50.77;;;26.67;;
13343;SDS011;6741;48.964;9.406;2022-12-18T04:26:38;50.10;;;26.97;;
13343;SDS011;6741;48.964;9.406;2022-12-18T04:29:04;47.37;;;26.10;;
13343;SDS011;6741;48.964;9.406;2022-12-18T04:31:31;48.07;;;25.77;;
13343;SDS011;6741;48.964;9.406;2022-12-18T04:33:58;46.40;;;25.97;;
13343;SDS011;6741;48.964;9.406;2022-12-18T04:36:27;45.00;;;26.40;;
13343;SDS011;6741;48.964;9.406;2022-12-18T04:38:54;49.10;;;26.40;;
13343;SDS011;6741;48.964;9.406;2022-12-18T04:41:21;52.47;;;26.20;;
13343;SDS011;6741;48.964;9.406;2022-12-18T04:43:48;53.60;;;25.60;;
13343;SDS011;6741;48.964;9.406;2022-12-18T04:46:15;48.23;;;26.27;;
13343;SDS011;6741;48.964;9.406;2022-12-18T04:48:42;42.60;;;24.37;;
13343;SDS011;6741;48.964;9.406;2022-12-18T04:51:11;45.63;;;22.60;;
13343;SDS011;6741;48.964;9.406;2022-12-18T04:53:40;47.03;;;24.00;;
13343;SDS011;6741;48.964;9.406;2022-12-18T04:56:08;41.07;;;23.23;;
13343;SDS011;6741;48.964;9.406;2022-12-18T04:58:37;45.83;;;24.40;;
13343;SDS011;6741;48.964;9.406;2022-12-18T05:01:05;50.40;;;24.63;;
13343;SDS011;6741;48.964;9.406;2022-12-18T05:03:33;42.80;;;24.87;;
13343;SDS011;6741;48.964;9.406;2022-12-18T05:06:01;48.40;;;25.57;;
13343;SDS011;6741;48.964;9.406;2022-12-18T05:08:29;43.97;;;23.80;;
13343;SDS011;6741;48.964;9.406;2022-12-18T05:11:00;45.93;;;23.20;;
13343;SDS011;6741;48.964;9.406;2022-12-18T05:13:29;41.50;;;22.63;;
13343;SDS011;6741;48.964;9.406;2022-12-18T05:15:56;43.90;;;24.13;;
13343;SDS011;6741;48.964;9.406;2022-12-18T05:18:23;43.67;;;23.47;;
13343;SDS011;6741;48.964;9.406;2022-12-18T05:20:51;45.23;;;23.17;;
13343;SDS011;6741;48.964;9.406;2022-12-18T05:23:19;47.53;;;25.07;;
13343;SDS011;6741;48.964;9.406;2022-12-18T05:25:50;44.07;;;25.97;;
13343;SDS011;6741;48.964;9.406;2022-12-18T05:28:19;48.97;;;25.07;;
13343;SDS011;6741;48.964;9.406;2022-12-18T05:30:50;49.07;;;25.20;;
13343;SDS011;6741;48.964;9.406;2022-12-18T05:33:17;45.77;;;24.77;;
13343;SDS011;6741;48.964;9.406;2022-12-18T05:35:49;46.40;;;24.17;;
13343;SDS011;6741;48.964;9.406;2022-12-18T05:38:17;47.47;;;25.90;;
13343;SDS011;6741;48.964;9.406;2022-12-18T05:40:44;46.07;;;24.97;;
13343;SDS011;6741;48.964;9.406;2022-12-18T05:43:13;53.43;;;27.37;;
13343;SDS011;6741;48.964;9.406;2022-12-18T05:45:42;52.97;;;27.37;;
13343;SDS011;6741;48.964;9.406;2022-12-18T05:48:09;47.37;;;24.77;;
13343;SDS011;6741;48.964;9.406;2022-12-18T05:50:36;50.97;;;25.73;;
13343;SDS011;6741;48.964;9.406;2022-12-18T05:53:04;47.80;;;23.87;;
13343;SDS011;6741;48.964;9.406;2022-12-18T05:55:32;43.87;;;24.67;;
13343;SDS011;6741;48.964;9.406;2022-12-18T05:57:59;45.13;;;24.00;;
13343;SDS011;6741;48.964;9.406;2022-12-18T06:00:27;48.93;;;24.50;;
13343;SDS011;6741;48.964;9.406;2022-12-18T06:02:56;47.23;;;25.93;;
13343;SDS011;6741;48.964;9.406;2022-12-18T06:05:26;48.90;;;24.07;;
13343;SDS011;6741;48.964;9.406;2022-12-18T06:07:54;45.37;;;22.93;;
13343;SDS011;6741;48.964;9.406;2022-12-18T06:10:21;44.53;;;24.10;;
13343;SDS011;6741;48.964;9.406;2022-12-18T06:12:48;40.13;;;21.73;;
13343;SDS011;6741;48.964;9.406;2022-12-18T06:15:18;41.53;;;22.77;;
13343;SDS011;6741;48.964;9.406;2022-12-18T06:17:45;47.30;;;24.00;;
13343;SDS011;6741;48.964;9.406;2022-12-18T06:20:14;44.30;;;23.60;;
13343;SDS011;6741;48.964;9.406;2022-12-18T06:22:41;42.13;;;22.33;;
13343;SDS011;6741;48.964;9.406;2022-12-18T06:25:08;44.10;;;23.27;;
13343;SDS011;6741;48.964;9.406;2022-12-18T06:27:36;43.93;;;22.47;;
13343;SDS011;6741;48.964;9.406;2022-12-18T06:30:04;42.17;;;22.90;;
13343;SDS011;6741;48.964;9.406;2022-12-18T06:32:32;43.73;;;23.03;;
13343;SDS011;6741;48.964;9.406;2022-12-18T06:34:59;48.23;;;24.53;;
13343;SDS011;6741;48.964;9.406;2022-12-18T06:37:28;43.57;;;22.57;;
13343;SDS011;6741;48.964;9.406;2022-12-18T06:39:56;36.33;;;22.07;;
13343;SDS011;6741;48.964;9.406;2022-12-18T06:42:26;42.83;;;22.00;;
13343;SDS011;6741;48.964;9.406;2022-12-18T06:44:54;43.57;;;21.90;;
13343;SDS011;6741;48.964;9.406;2022-12-18T06:47:21;45.27;;;22.17;;
13343;SDS011;6741;48.964;9.406;2022-12-18T06:49:48;44.40;;;21.13;;
13343;SDS011;6741;48.964;9.406;2022-12-18T06:52:16;45.17;;;22.97;;
13343;SDS011;6741;48.964;9.406;2022-12-18T06:54:45;43.20;;;23.23;;
13343;SDS011;6741;48.964;9.406;2022-12-18T06:57:12;44.40;;;22.20;;
13343;SDS011;6741;48.964;9.406;2022-12-18T06:59:38;42.30;;;21.60;;
13343;SDS011;6741;48.964;9.406;2022-12-18T07:02:05;44.57;;;22.13;;
13343;SDS011;6741;48.964;9.406;2022-12-18T07:04:32;40.80;;;20.57;;
13343;SDS011;6741;48.964;9.406;2022-12-18T07:06:59;40.77;;;22.10;;
13343;SDS011;6741;48.964;9.406;2022-12-18T07:09:26;39.50;;;20.77;;
13343;SDS011;6741;48.964;9.406;2022-12-18T07:11:55;41.07;;;19.90;;
13343;SDS011;6741;48.964;9.406;2022-12-18T07:14:21;39.33;;;21.13;;
13343;SDS011;6741;48.964;9.406;2022-12-18T07:16:48;41.20;;;19.77;;
13343;SDS011;6741;48.964;9.406;2022-12-18T07:19:15;37.07;;;20.20;;
13343;SDS011;6741;48.964;9.406;2022-12-18T07:21:42;42.47;;;20.87;;
13343;SDS011;6741;48.964;9.406;2022-12-18T07:24:09;40.57;;;20.73;;
13343;SDS011;6741;48.964;9.406;2022-12-18T07:26:36;40.70;;;21.13;;
13343;SDS011;6741;48.964;9.406;2022-12-18T07:29:05;38.77;;;20.67;;
13343;SDS011;6741;48.964;9.406;2022-12-18T07:31:32;37.87;;;20.47;;
13343;SDS011;6741;48.964;9.406;2022-12-18T07:33:59;39.97;;;20.10;;
13343;SDS011;6741;48.964;9.406;2022-12-18T07:36:26;43.33;;;21.67;;
13343;SDS011;6741;48.964;9.406;2022-12-18T07:38:53;42.67;;;20.37;;
13343;SDS011;6741;48.964;9.406;2022-12-18T07:41:21;49.67;;;23.83;;
13343;SDS011;6741;48.964;9.406;2022-12-18T07:43:48;58.17;;;27.40;;
13343;SDS011;6741;48.964;9.406;2022-12-18T07:46:16;52.63;;;25.53;;
13343;SDS011;6741;48.964;9.406;2022-12-18T07:48:44;60.13;;;28.13;;
13343;SDS011;6741;48.964;9.406;2022-12-18T07:51:11;49.93;;;25.97;;
13343;SDS011;6741;48.964;9.406;2022-12-18T07:53:38;40.63;;;22.27;;
13343;SDS011;6741;48.964;9.406;2022-12-18T07:56:06;37.97;;;20.27;;
13343;SDS011;6741;48.964;9.406;2022-12-18T07:58:35;41.50;;;22.90;;
13343;SDS011;6741;48.964;9.406;2022-12-18T08:01:03;39.93;;;21.70;;
13343;SDS011;6741;48.964;9.406;2022-12-18T08:03:32;39.53;;;20.87;;
13343;SDS011;6741;48.964;9.406;2022-12-18T08:06:00;40.20;;;21.23;;
13343;SDS011;6741;48.964;9.406;2022-12-18T08:08:27;43.50;;;20.37;;
13343;SDS011;6741;48.964;9.406;2022-12-18T08:10:54;42.07;;;20.53;;
13343;SDS011;6741;48.964;9.406;2022-12-18T08:13:21;42.47;;;20.03;;
13343;SDS011;6741;48.964;9.406;2022-12-18T08:15:55;42.30;;;20.97;;
13343;SDS011;6741;48.964;9.406;2022-12-18T08:18:23;40.37;;;20.30;;
13343;SDS011;6741;48.964;9.406;2022-12-18T08:20:51;38.30;;;18.50;;
13343;SDS011;6741;48.964;9.406;2022-12-18T08:23:18;41.60;;;20.40;;
13343;SDS011;6741;48.964;9.406;2022-12-18T08:25:46;41.63;;;21.70;;
13343;SDS011;6741;48.964;9.406;2022-12-18T08:28:13;40.00;;;20.03;;
13343;SDS011;6741;48.964;9.406;2022-12-18T08:30:43;40.80;;;20.77;;
13343;SDS011;6741;48.964;9.406;2022-12-18T08:33:10;37.00;;;19.97;;
13343;SDS011;6741;48.964;9.406;2022-12-18T08:35:37;39.43;;;19.00;;
13343;SDS011;6741;48.964;9.406;2022-12-18T08:38:05;40.73;;;19.40;;
13343;SDS011;6741;48.964;9.406;2022-12-18T08:40:32;42.40;;;20.07;;
13343;SDS011;6741;48.964;9.406;2022-12-18T08:42:59;42.63;;;20.80;;
13343;SDS011;6741;48.964;9.406;2022-12-18T08:45:44;40.60;;;20.83;;
13343;SDS011;6741;48.964;9.406;2022-12-18T08:48:13;39.43;;;19.37;;
13343;SDS011;6741;48.964;9.406;2022-12-18T08:50:42;39.00;;;20.13;;
13343;SDS011;6741;48.964;9.406;2022-12-18T08:53:10;43.33;;;21.23;;
13343;SDS011;6741;48.964;9.406;2022-12-18T08:55:37;39.63;;;19.47;;
13343;SDS011;6741;48.964;9.406;2022-12-18T08:58:04;37.03;;;20.37;;
13343;SDS011;6741;48.964;9.406;2022-12-18T09:00:31;39.80;;;19.60;;
13343;SDS011;6741;48.964;9.406;2022-12-18T09:02:58;39.70;;;20.07;;
13343;SDS011;6741;48.964;9.406;2022-12-18T09:05:27;38.87;;;20.60;;
13343;SDS011;6741;48.964;9.406;2022-12-18T09:07:54;40.47;;;20.50;;
13343;SDS011;6741;48.964;9.406;2022-12-18T09:10:22;34.63;;;19.50;;
13343;SDS011;6741;48.964;9.406;2022-12-18T09:12:49;43.33;;;21.80;;
13343;SDS011;6741;48.964;9.406;2022-12-18T09:15:16;40.87;;;21.30;;
13343;SDS011;6741;48.964;9.406;2022-12-18T09:17:43;36.17;;;19.83;;
13343;SDS011;6741;48.964;9.406;2022-12-18T09:20:10;39.47;;;21.30;;
13343;SDS011;6741;48.964;9.406;2022-12-18T09:22:37;42.33;;;22.43;;
13343;SDS011;6741;48.964;9.406;2022-12-18T09:25:04;44.17;;;21.43;;
13343;SDS011;6741;48.964;9.406;2022-12-18T09:27:37;43.87;;;24.17;;
13343;SDS011;6741;48.964;9.406;2022-12-18T09:30:04;40.77;;;20.33;;
13343;SDS011;6741;48.964;9.406;2022-12-18T09:32:33;45.40;;;22.63;;
13343;SDS011;6741;48.964;9.406;2022-12-18T09:35:01;36.73;;;21.33;;
13343;SDS011;6741;48.964;9.406;2022-12-18T09:37:28;40.87;;;22.07;;
13343;SDS011;6741;48.964;9.406;2022-12-18T09:39:58;40.87;;;21.37;;
13343;SDS011;6741;48.964;9.406;2022-12-18T09:42:27;108.60;;;26.43;;
13343;SDS011;6741;48.964;9.406;2022-12-18T09:44:55;43.37;;;21.90;;
13343;SDS011;6741;48.964;9.406;2022-12-18T09:47:23;44.93;;;22.57;;
13343;SDS011;6741;48.964;9.406;2022-12-18T09:49:55;35.53;;;21.23;;
13343;SDS011;6741;48.964;9.406;2022-12-18T09:52:26;42.67;;;21.93;;
13343;SDS011;6741;48.964;9.406;2022-12-18T09:54:58;40.83;;;19.47;;
13343;SDS011;6741;48.964;9.406;2022-12-18T09:57:28;37.63;;;20.73;;
13343;SDS011;6741;48.964;9.406;2022-12-18T09:59:59;41.73;;;22.53;;
13343;SDS011;6741;48.964;9.406;2022-12-18T10:02:32;41.17;;;21.03;;
13343;SDS011;6741;48.964;9.406;2022-12-18T10:05:04;46.93;;;22.73;;
13343;SDS011;6741;48.964;9.406;2022-12-18T10:07:37;39.10;;;20.93;;
13343;SDS011;6741;48.964;9.406;2022-12-18T10:10:13;38.47;;;20.57;;
13343;SDS011;6741;48.964;9.406;2022-12-18T10:12:47;40.13;;;21.33;;
13343;SDS011;6741;48.964;9.406;2022-12-18T10:15:23;37.43;;;19.73;;
13343;SDS011;6741;48.964;9.406;2022-12-18T10:17:57;38.63;;;20.90;;
13343;SDS011;6741;48.964;9.406;2022-12-18T10:20:35;45.47;;;20.93;;
13343;SDS011;6741;48.964;9.406;2022-12-18T10:23:17;37.63;;;20.10;;
13343;SDS011;6741;48.964;9.406;2022-12-18T10:25:57;37.63;;;20.63;;
13343;SDS011;6741;48.964;9.406;2022-12-18T10:28:32;42.47;;;21.73;;
13343;SDS011;6741;48.964;9.406;2022-12-18T10:31:03;38.60;;;20.77;;
13343;SDS011;6741;48.964;9.406;2022-12-18T10:33:32;36.40;;;19.53;;
13343;SDS011;6741;48.964;9.406;2022-12-18T10:36:00;35.80;;;19.90;;
13343;SDS011;6741;48.964;9.406;2022-12-18T10:38:28;34.73;;;20.00;;
13343;SDS011;6741;48.964;9.406;2022-12-18T10:40:57;33.17;;;18.87;;
13343;SDS011;6741;48.964;9.406;2022-12-18T10:43:26;36.07;;;19.60;;
13343;SDS011;6741;48.964;9.406;2022-12-18T10:45:58;34.17;;;19.63;;
13343;SDS011;6741;48.964;9.406;2022-12-18T10:48:30;39.17;;;22.00;;
13343;SDS011;6741;48.964;9.406;2022-12-18T10:50:58;36.43;;;20.20;;
13343;SDS011;6741;48.964;9.406;2022-12-18T10:53:26;30.60;;;18.23;;
13343;SDS011;6741;48.964;9.406;2022-12-18T10:55:55;30.40;;;17.77;;
13343;SDS011;6741;48.964;9.406;2022-12-18T10:58:25;28.40;;;17.30;;
13343;SDS011;6741;48.964;9.406;2022-12-18T11:01:04;31.53;;;18.63;;
13343;SDS011;6741;48.964;9.406;2022-12-18T11:03:35;29.47;;;16.33;;
13343;SDS011;6741;48.964;9.406;2022-12-18T11:06:04;28.33;;;17.13;;
13343;SDS011;6741;48.964;9.406;2022-12-18T11:08:33;29.37;;;16.97;;
13343;SDS011;6741;48.964;9.406;2022-12-18T11:11:01;26.50;;;16.10;;
13343;SDS011;6741;48.964;9.406;2022-12-18T11:13:29;29.27;;;16.30;;
13343;SDS011;6741;48.964;9.406;2022-12-18T11:15:57;28.77;;;17.23;;
13343;SDS011;6741;48.964;9.406;2022-12-18T11:18:26;26.87;;;16.87;;
13343;SDS011;6741;48.964;9.406;2022-12-18T11:20:57;26.40;;;17.10;;
13343;SDS011;6741;48.964;9.406;2022-12-18T11:23:26;321.60;;;51.03;;
13343;SDS011;6741;48.964;9.406;2022-12-18T11:25:55;25.97;;;17.03;;
13343;SDS011;6741;48.964;9.406;2022-12-18T11:28:25;27.30;;;16.83;;
13343;SDS011;6741;48.964;9.406;2022-12-18T11:31:08;28.87;;;17.37;;
13343;SDS011;6741;48.964;9.406;2022-12-18T11:33:44;27.47;;;16.30;;
13343;SDS011;6741;48.964;9.406;2022-12-18T11:36:16;27.30;;;16.70;;
13343;SDS011;6741;48.964;9.406;2022-12-18T11:38:45;26.77;;;15.67;;
13343;SDS011;6741;48.964;9.406;2022-12-18T11:41:15;27.17;;;16.17;;
13343;SDS011;6741;48.964;9.406;2022-12-18T11:44:10;24.13;;;15.43;;
13343;SDS011;6741;48.964;9.406;2022-12-18T11:46:41;24.57;;;16.53;;
13343;SDS011;6741;48.964;9.406;2022-12-18T11:49:14;25.17;;;17.00;;
13343;SDS011;6741;48.964;9.406;2022-12-18T11:51:48;26.03;;;16.33;;
13343;SDS011;6741;48.964;9.406;2022-12-18T11:54:21;24.17;;;16.50;;
13343;SDS011;6741;48.964;9.406;2022-12-18T11:56:49;26.93;;;16.27;;
13343;SDS011;6741;48.964;9.406;2022-12-18T11:59:21;26.90;;;16.17;;
13343;SDS011;6741;48.964;9.406;2022-12-18T12:01:55;26.43;;;16.17;;
13343;SDS011;6741;48.964;9.406;2022-12-18T12:04:43;24.47;;;15.80;;
13343;SDS011;6741;48.964;9.406;2022-12-18T12:07:27;23.47;;;15.37;;
13343;SDS011;6741;48.964;9.406;2022-12-18T12:10:09;22.90;;;15.10;;
13343;SDS011;6741;48.964;9.406;2022-12-18T12:12:51;26.27;;;16.40;;
13343;SDS011;6741;48.964;9.406;2022-12-18T12:15:32;25.00;;;16.73;;
13343;SDS011;6741;48.964;9.406;2022-12-18T12:18:08;27.60;;;16.40;;
13343;SDS011;6741;48.964;9.406;2022-12-18T12:20:44;25.33;;;16.20;;
13343;SDS011;6741;48.964;9.406;2022-12-18T12:23:23;25.37;;;16.87;;
13343;SDS011;6741;48.964;9.406;2022-12-18T12:25:57;24.83;;;16.93;;
13343;SDS011;6741;48.964;9.406;2022-12-18T12:28:47;22.33;;;16.50;;
13343;SDS011;6741;48.964;9.406;2022-12-18T12:31:30;25.57;;;16.83;;
13343;SDS011;6741;48.964;9.406;2022-12-18T12:34:13;21.60;;;15.27;;
13343;SDS011;6741;48.964;9.406;2022-12-18T12:36:49;24.00;;;15.80;;
13343;SDS011;6741;48.964;9.406;2022-12-18T12:39:30;26.40;;;18.17;;
13343;SDS011;6741;48.964;9.406;2022-12-18T12:42:00;24.13;;;16.70;;
13343;SDS011;6741;48.964;9.406;2022-12-18T12:44:48;25.13;;;16.80;;
13343;SDS011;6741;48.964;9.406;2022-12-18T12:47:21;25.03;;;17.03;;
13343;SDS011;6741;48.964;9.406;2022-12-18T12:49:52;23.83;;;15.73;;
13343;SDS011;6741;48.964;9.406;2022-12-18T12:52:24;24.50;;;15.37;;
13343;SDS011;6741;48.964;9.406;2022-12-18T12:54:58;24.97;;;15.83;;
13343;SDS011;6741;48.964;9.406;2022-12-18T12:57:29;25.43;;;15.50;;
13343;SDS011;6741;48.964;9.406;2022-12-18T13:00:01;25.70;;;15.93;;
13343;SDS011;6741;48.964;9.406;2022-12-18T13:02:33;26.33;;;16.47;;
13343;SDS011;6741;48.964;9.406;2022-12-18T13:05:05;25.63;;;17.10;;
13343;SDS011;6741;48.964;9.406;2022-12-18T13:07:45;26.40;;;17.77;;
13343;SDS011;6741;48.964;9.406;2022-12-18T13:13:05;25.93;;;15.37;;
13343;SDS011;6741;48.964;9.406;2022-12-18T13:15:36;23.70;;;15.13;;
13343;SDS011;6741;48.964;9.406;2022-12-18T13:20:49;25.93;;;16.03;;
13343;SDS011;6741;48.964;9.406;2022-12-18T13:23:33;25.37;;;16.60;;
13343;SDS011;6741;48.964;9.406;2022-12-18T13:28:59;21.87;;;15.30;;
13343;SDS011;6741;48.964;9.406;2022-12-18T13:34:27;27.20;;;15.50;;
13343;SDS011;6741;48.964;9.406;2022-12-18T13:36:56;25.83;;;16.93;;
13343;SDS011;6741;48.964;9.406;2022-12-18T13:39:43;26.33;;;16.17;;
13343;SDS011;6741;48.964;9.406;2022-12-18T13:45:38;26.20;;;16.60;;
13343;SDS011;6741;48.964;9.406;2022-12-18T13:48:15;23.60;;;16.63;;
13343;SDS011;6741;48.964;9.406;2022-12-18T13:50:48;24.90;;;16.57;;
13343;SDS011;6741;48.964;9.406;2022-12-18T13:53:19;26.87;;;16.97;;
13343;SDS011;6741;48.964;9.406;2022-12-18T13:55:49;28.60;;;17.43;;
13343;SDS011;6741;48.964;9.406;2022-12-18T13:58:20;29.10;;;17.50;;
13343;SDS011;6741;48.964;9.406;2022-12-18T14:00:47;30.70;;;19.60;;
13343;SDS011;6741;48.964;9.406;2022-12-18T14:03:21;43.37;;;27.20;;
13343;SDS011;6741;48.964;9.406;2022-12-18T14:05:53;35.00;;;22.87;;
13343;SDS011;6741;48.964;9.406;2022-12-18T14:08:22;34.00;;;22.10;;
13343;SDS011;6741;48.964;9.406;2022-12-18T14:10:51;47.63;;;27.30;;
13343;SDS011;6741;48.964;9.406;2022-12-18T14:13:21;46.87;;;26.97;;
13343;SDS011;6741;48.964;9.406;2022-12-18T14:15:53;28.20;;;17.83;;
13343;SDS011;6741;48.964;9.406;2022-12-18T14:18:21;33.33;;;20.20;;
13343;SDS011;6741;48.964;9.406;2022-12-18T14:20:51;27.50;;;17.10;;
13343;SDS011;6741;48.964;9.406;2022-12-18T14:23:29;31.00;;;18.60;;
13343;SDS011;6741;48.964;9.406;2022-12-18T14:25:58;28.60;;;18.47;;
13343;SDS011;6741;48.964;9.406;2022-12-18T14:28:27;30.33;;;17.17;;
13343;SDS011;6741;48.964;9.406;2022-12-18T14:30:54;28.47;;;17.67;;
13343;SDS011;6741;48.964;9.406;2022-12-18T14:33:22;42.07;;;23.60;;
13343;SDS011;6741;48.964;9.406;2022-12-18T14:35:57;38.50;;;24.07;;
13343;SDS011;6741;48.964;9.406;2022-12-18T14:38:28;37.57;;;22.43;;
13343;SDS011;6741;48.964;9.406;2022-12-18T14:40:57;31.87;;;19.53;;
13343;SDS011;6741;48.964;9.406;2022-12-18T14:43:27;32.27;;;19.40;;
13343;SDS011;6741;48.964;9.406;2022-12-18T14:45:55;32.57;;;17.63;;
13343;SDS011;6741;48.964;9.406;2022-12-18T14:48:30;38.63;;;22.10;;
13343;SDS011;6741;48.964;9.406;2022-12-18T14:51:03;67.40;;;34.90;;
13343;SDS011;6741;48.964;9.406;2022-12-18T14:53:33;113.37;;;58.27;;
13343;SDS011;6741;48.964;9.406;2022-12-18T14:56:02;486.33;;;82.47;;
13343;SDS011;6741;48.964;9.406;2022-12-18T14:58:44;107.43;;;49.83;;
13343;SDS011;6741;48.964;9.406;2022-12-18T15:01:18;376.83;;;143.37;;
13343;SDS011;6741;48.964;9.406;2022-12-18T15:03:46;213.03;;;93.57;;
13343;SDS011;6741;48.964;9.406;2022-12-18T15:06:17;101.77;;;48.53;;
13343;SDS011;6741;48.964;9.406;2022-12-18T15:08:50;54.47;;;29.93;;